createdAt,value
2019-01-05T00:02:42.637Z,98031.73
2019-01-05T00:05:27.462Z,98035.14
2019-01-05T00:08:11.797Z,98029.20
2019-01-05T00:10:56.325Z,98029.20
2019-01-05T00:13:29.797Z,98026.16
2019-01-05T00:16:01.188Z,97977.53
2019-01-05T00:18:31.687Z,98017.18
2019-01-05T00:21:00.028Z,98008.64
2019-01-05T00:23:36.006Z,98004.80
2019-01-05T00:26:06.884Z,97995.38
2019-01-05T00:28:52.539Z,97998.80
2019-01-05T00:31:39.257Z,97993.66
2019-01-05T00:34:25.047Z,97997.52
2019-01-05T00:36:59.427Z,97956.63
2019-01-05T00:39:37.159Z,98002.20
2019-01-05T00:42:22.169Z,97998.77
2019-01-05T00:44:49.944Z,97997.49
2019-01-05T00:47:35.683Z,98001.78
2019-01-05T00:50:19.290Z,98002.63
2019-01-05T00:53:05.629Z,98004.77
2019-01-05T00:55:50.550Z,98009.43
2019-01-05T00:58:18.508Z,98005.63
2019-01-05T01:01:08.797Z,98011.63
2019-01-05T01:03:42.862Z,98014.17
2019-01-05T01:06:22.762Z,98014.17
2019-01-05T01:08:53.230Z,98022.31
2019-01-05T01:11:21.020Z,98013.36
2019-01-05T01:14:05.468Z,98018.05
2019-01-05T01:16:45.587Z,98016.77
2019-01-05T01:19:32.048Z,98012.47
2019-01-05T01:22:06.062Z,98021.48
2019-01-05T01:24:34.010Z,98018.05
2019-01-05T01:27:18.976Z,98025.69
2019-01-05T01:29:56.293Z,98027.78
2019-01-05T01:32:30.082Z,98026.11
2019-01-05T01:34:57.948Z,98031.24
2019-01-05T01:38:06.773Z,98026.53
2019-01-05T01:40:34.609Z,98029.52
2019-01-05T01:43:17.585Z,98028.65
2019-01-05T01:45:56.614Z,98026.53
2019-01-05T01:48:36.854Z,98020.14
2019-01-05T01:51:05.110Z,98019.27
2019-01-05T01:53:32.856Z,98019.27
2019-01-05T01:56:01.272Z,98010.33
2019-01-05T01:58:44.862Z,98003.91
2019-01-05T02:01:22.248Z,98002.59
2019-01-05T02:03:53.766Z,98002.59
2019-01-05T02:06:39.756Z,98009.84
2019-01-05T02:09:22.694Z,97997.88
2019-01-05T02:11:54.219Z,98003.91
2019-01-05T02:14:25.196Z,98003.44
2019-01-05T02:17:17.895Z,98003.44
2019-01-05T02:20:09.680Z,97994.42
2019-01-05T02:23:06.866Z,97992.72
2019-01-05T02:26:11.574Z,97985.47
2019-01-05T02:29:19.391Z,97985.52
2019-01-05T02:32:05.901Z,97980.39
2019-01-05T02:38:25.040Z,97981.23
2019-01-05T02:41:05.875Z,97976.09
2019-01-05T02:43:43.085Z,97966.31
2019-01-05T02:47:01.236Z,97965.02
2019-01-05T02:49:48.365Z,97964.61
2019-01-05T02:52:39.286Z,97959.98
2019-01-05T02:55:16.810Z,97930.98
2019-01-05T02:58:02.902Z,97930.98
2019-01-05T03:01:07.739Z,97943.33
2019-01-05T03:04:14.451Z,97942.91
2019-01-05T03:09:56.915Z,97932.20
2019-01-05T03:12:52.511Z,97934.80
2019-01-05T03:15:49.801Z,97920.69
2019-01-05T03:18:48.556Z,97924.95
2019-01-05T03:22:03.385Z,97914.25
2019-01-05T03:25:06.158Z,97905.73
2019-01-05T03:28:10.312Z,97897.16
2019-01-05T03:31:18.991Z,97894.19
2019-01-05T03:37:32.557Z,97872.41
2019-01-05T03:40:13.164Z,97854.39
2019-01-05T03:43:13.553Z,97854.39
2019-01-05T03:46:06.340Z,97831.73
2019-01-05T03:49:01.264Z,97831.73
2019-01-05T03:52:15.841Z,97832.56
2019-01-05T03:58:31.893Z,97833.46
2019-01-05T04:01:18.118Z,97832.59
2019-01-05T04:04:24.736Z,97832.59
2019-01-05T04:07:29.378Z,97826.14
2019-01-05T04:10:54.432Z,97767.35
2019-01-05T04:13:35.079Z,97767.35
2019-01-05T04:16:09.480Z,97812.03
2019-01-05T04:19:03.607Z,97803.09
2019-01-05T04:22:24.488Z,97809.06
2019-01-05T04:25:45.534Z,97812.03
2019-01-05T04:28:29.096Z,97814.59
2019-01-05T04:31:03.542Z,97823.58
2019-01-05T04:34:24.775Z,97813.69
2019-01-05T04:37:26.733Z,97813.69
2019-01-05T04:40:10.613Z,97820.10
2019-01-05T04:43:02.749Z,97817.54
2019-01-05T04:49:16.618Z,97808.60
2019-01-05T04:52:28.044Z,97812.94
2019-01-05T04:55:07.041Z,97812.94
2019-01-05T04:57:41.648Z,97793.78
2019-01-05T05:00:32.329Z,97805.25
2019-01-05T05:06:56.278Z,97796.69
2019-01-05T05:09:36.475Z,97798.42
2019-01-05T05:12:13.664Z,97788.20
2019-01-05T05:15:04.325Z,97777.56
2019-01-05T05:18:07.618Z,97766.52
2019-01-05T05:21:12.788Z,97755.47
2019-01-05T05:27:52.540Z,97778.99
2019-01-05T05:31:01.089Z,97762.37
2019-01-05T05:34:04.377Z,97757.66
2019-01-05T05:36:55.960Z,97761.50
2019-01-05T05:43:07.280Z,97751.17
2019-01-05T05:45:47.903Z,97754.60
2019-01-05T05:49:04.965Z,97757.55
2019-01-05T05:51:48.300Z,97753.25
2019-01-05T05:54:20.105Z,97750.72
2019-01-05T05:57:18.878Z,97745.56
2019-01-05T06:00:11.458Z,97745.56
2019-01-05T06:03:10.173Z,97747.30
2019-01-05T06:06:20.125Z,97738.36
2019-01-05T06:09:03.611Z,97739.64
2019-01-05T06:11:51.888Z,97731.49
2019-01-05T06:14:58.839Z,97734.51
2019-01-05T06:17:45.311Z,97733.68
2019-01-05T06:20:54.860Z,97731.12
2019-01-05T06:24:01.405Z,97731.12
2019-01-05T06:26:52.428Z,97723.47
2019-01-05T06:29:48.235Z,97718.80
2019-01-05T06:32:53.939Z,97718.38
2019-01-05T06:36:10.738Z,97714.13
2019-01-05T06:39:17.193Z,97720.95
2019-01-05T06:42:23.512Z,97725.20
2019-01-05T06:45:30.349Z,97726.90
2019-01-05T06:48:25.370Z,97729.84
2019-01-05T06:51:28.417Z,97719.66
2019-01-05T06:54:20.219Z,97719.66
2019-01-05T06:57:28.735Z,97719.17
2019-01-05T07:00:12.732Z,97711.11
2019-01-05T07:03:14.178Z,97711.11
2019-01-05T07:05:58.536Z,97717.06
2019-01-05T07:09:22.015Z,97710.23
2019-01-05T07:15:18.453Z,97716.23
2019-01-05T07:18:06.685Z,97711.52
2019-01-05T07:21:15.625Z,97715.33
2019-01-05T07:24:21.837Z,97719.17
2019-01-05T07:27:48.666Z,97718.34
2019-01-05T07:30:54.640Z,97706.39
2019-01-05T07:34:05.209Z,97702.92
2019-01-05T07:37:04.531Z,97707.63
2019-01-05T07:39:58.474Z,97701.64
2019-01-05T07:46:03.094Z,97701.23
2019-01-05T07:49:27.283Z,97693.95
2019-01-05T07:52:55.245Z,97693.95
2019-01-05T07:55:56.323Z,97702.05
2019-01-05T07:58:44.779Z,97702.05
2019-01-05T08:02:07.601Z,97697.30
2019-01-05T08:04:47.920Z,97697.30
2019-01-05T08:07:47.218Z,97700.73
2019-01-05T08:10:39.353Z,97690.48
2019-01-05T08:13:40.725Z,97699.86
2019-01-05T08:16:30.300Z,97689.56
2019-01-05T08:19:41.171Z,97698.12
2019-01-05T08:22:48.444Z,97695.52
2019-01-05T08:25:46.001Z,97675.86
2019-01-05T08:28:40.760Z,97677.97
2019-01-05T08:31:35.585Z,97677.97
2019-01-05T08:34:37.479Z,97676.66
2019-01-05T08:37:47.641Z,97673.71
2019-01-05T08:40:47.995Z,97668.58
2019-01-05T08:43:58.633Z,97658.28
2019-01-05T08:47:18.897Z,97666.80
2019-01-05T08:50:24.079Z,97666.80
2019-01-05T08:53:44.697Z,97672.69
2019-01-05T08:56:34.994Z,97672.69
2019-01-05T08:59:42.093Z,97664.09
2019-01-05T09:02:47.980Z,97666.23
2019-01-05T09:05:59.162Z,97659.78
2019-01-05T09:08:30.712Z,97666.59
2019-01-05T09:15:23.762Z,97660.47
2019-01-05T09:18:31.539Z,97654.41
2019-01-05T09:21:11.613Z,97662.05
2019-01-05T09:24:00.390Z,97664.55
2019-01-05T09:27:22.513Z,97666.60
2019-01-05T09:30:21.148Z,97661.00
2019-01-05T09:33:22.188Z,97661.01
2019-01-05T09:36:29.210Z,97657.57
2019-01-05T09:39:23.841Z,97652.42
2019-01-05T09:42:16.819Z,97660.53
2019-01-05T09:45:27.827Z,97652.76
2019-01-05T09:48:16.210Z,97646.70
2019-01-05T09:51:25.372Z,97649.58
2019-01-05T09:54:34.700Z,97643.99
2019-01-05T09:57:42.234Z,97631.13
2019-01-05T10:01:02.401Z,97628.51
2019-01-05T10:03:53.313Z,97631.02
2019-01-05T10:06:34.589Z,97634.05
2019-01-05T10:09:30.672Z,97628.84
2019-01-05T10:12:23.945Z,97625.39
2019-01-05T10:15:18.663Z,97617.62
2019-01-05T10:18:18.934Z,97622.28
2019-01-05T10:21:31.978Z,97621.45
2019-01-05T10:24:18.601Z,97615.42
2019-01-05T10:27:25.868Z,97620.98
2019-01-05T10:30:32.403Z,97622.13
2019-01-05T10:44:15.241Z,97633.62
2019-01-05T10:47:11.080Z,97637.04
2019-01-05T10:50:05.845Z,97632.73
2019-01-05T10:53:04.450Z,97635.77
2019-01-05T10:56:00.280Z,97628.61
2019-01-05T10:59:12.932Z,97640.20
2019-01-05T11:02:03.499Z,97630.38
2019-01-05T11:05:13.521Z,97632.94
2019-01-05T11:08:19.112Z,97636.86
2019-01-05T11:11:12.139Z,97631.26
2019-01-05T11:14:20.753Z,97634.69
2019-01-05T11:16:58.415Z,97641.48
2019-01-05T11:19:50.892Z,97632.08
2019-01-05T11:22:56.024Z,97623.89
2019-01-05T11:26:09.181Z,97625.56
2019-01-05T11:29:15.535Z,97629.81
2019-01-05T11:31:56.437Z,97622.51
2019-01-05T11:34:58.756Z,97614.80
2019-01-05T11:38:07.382Z,97609.59
2019-01-05T11:40:59.012Z,97596.83
2019-01-05T11:44:00.332Z,97597.56
2019-01-05T11:46:49.884Z,97587.41
2019-01-05T11:49:41.713Z,97579.25
2019-01-05T11:52:54.213Z,97583.12
2019-01-05T11:55:51.933Z,97576.68
2019-01-05T11:58:38.113Z,97578.78
2019-01-05T12:01:46.009Z,97573.16
2019-01-05T12:04:26.699Z,97574.03
2019-01-05T12:07:38.314Z,97579.17
2019-01-05T12:10:42.710Z,97580.82
2019-01-05T12:13:41.919Z,97585.44
2019-01-05T12:16:47.557Z,97580.74
2019-01-05T12:19:36.271Z,97579.95
2019-01-05T12:25:47.502Z,97576.45
2019-01-05T12:28:54.459Z,97572.58
2019-01-05T12:31:41.394Z,97572.56
2019-01-05T12:34:38.476Z,97576.36
2019-01-05T12:37:31.581Z,97571.98
2019-01-05T12:40:41.472Z,97566.05
2019-01-05T12:44:03.858Z,97561.73
2019-01-05T12:46:57.834Z,97558.67
2019-01-05T12:50:08.957Z,97555.28
2019-01-05T12:52:49.479Z,97553.19
2019-01-05T12:55:56.491Z,97550.88
2019-01-05T12:58:46.970Z,97563.80
2019-01-05T13:01:42.639Z,97573.28
2019-01-05T13:04:30.196Z,97573.34
2019-01-05T13:07:34.815Z,97570.73
2019-01-05T13:10:41.638Z,97572.38
2019-01-05T13:13:33.308Z,97565.48
2019-01-05T13:20:31.358Z,97553.94
2019-01-05T13:23:28.941Z,97560.98
2019-01-05T13:26:53.687Z,97566.09
2019-01-05T13:30:16.025Z,97567.86
2019-01-05T13:36:09.633Z,97573.70
2019-01-05T13:38:44.402Z,97577.56
2019-01-05T13:41:28.404Z,97577.97
2019-01-05T13:44:29.226Z,97589.06
2019-01-05T13:47:31.163Z,97585.22
2019-01-05T13:50:29.663Z,97594.19
2019-01-05T13:53:21.432Z,97597.19
2019-01-05T13:56:11.175Z,97544.13
2019-01-05T13:58:56.148Z,97582.63
2019-01-05T14:01:40.666Z,97575.78
2019-01-05T14:04:08.674Z,97575.33
2019-01-05T14:06:45.273Z,97579.59
2019-01-05T14:09:22.097Z,97579.09
2019-01-05T14:11:52.804Z,97580.44
2019-01-05T14:14:23.317Z,97582.55
2019-01-05T14:16:54.083Z,97584.14
2019-01-05T14:19:38.569Z,97590.47
2019-01-05T14:22:22.734Z,97601.57
2019-01-05T14:24:50.502Z,97595.59
2019-01-05T14:27:18.268Z,97598.08
2019-01-05T14:30:06.031Z,97594.47
2019-01-05T14:32:42.990Z,97602.58
2019-01-05T14:35:16.526Z,97600.86
2019-01-05T14:38:01.284Z,97604.66
2019-01-05T14:40:47.110Z,97603.36
2019-01-05T14:43:14.844Z,97600.41
2019-01-05T14:45:48.920Z,97597.00
2019-01-05T14:48:23.048Z,97588.29
2019-01-05T14:51:08.864Z,97592.65
2019-01-05T14:53:36.604Z,97596.02
2019-01-05T14:56:13.663Z,97595.17
2019-01-05T14:58:47.458Z,97593.45
2019-01-05T15:01:27.514Z,97587.91
2019-01-05T15:03:55.248Z,97597.41
2019-01-05T15:06:39.960Z,97589.59
2019-01-05T15:09:23.101Z,97603.36
2019-01-05T15:12:07.781Z,97601.67
2019-01-05T15:14:38.423Z,97601.67
2019-01-05T15:17:12.023Z,97605.05
2019-01-05T15:19:52.149Z,97602.08
2019-01-05T15:22:23.188Z,97605.47
2019-01-05T15:24:53.948Z,97607.20
2019-01-05T15:27:24.678Z,97608.52
2019-01-05T15:30:03.163Z,97600.80
2019-01-05T15:32:36.759Z,97606.45
2019-01-05T15:35:21.588Z,97607.72
2019-01-05T15:38:06.330Z,97602.25
2019-01-05T15:40:40.272Z,97604.84
2019-01-05T15:43:11.082Z,97617.71
2019-01-05T15:45:51.057Z,97611.27
2019-01-05T15:48:35.701Z,97610.80
2019-01-05T15:51:06.705Z,97608.70
2019-01-05T15:53:47.044Z,97603.62
2019-01-05T15:56:14.784Z,97608.63
2019-01-05T15:58:42.795Z,97610.36
2019-01-05T16:01:16.796Z,97607.30
2019-01-05T16:03:44.512Z,97601.77
2019-01-05T16:06:15.374Z,97607.33
2019-01-05T16:08:45.855Z,97616.75
2019-01-05T16:11:30.264Z,97619.80
2019-01-05T16:14:00.733Z,97623.18
2019-01-05T16:16:31.495Z,97628.80
2019-01-05T16:19:02.395Z,97627.03
2019-01-05T16:21:45.284Z,97632.73
2019-01-05T16:24:29.747Z,97635.20
2019-01-05T16:27:03.287Z,97634.83
2019-01-05T16:29:47.546Z,97629.20
2019-01-05T16:32:32.078Z,97636.48
2019-01-05T16:35:16.614Z,97643.27
2019-01-05T16:38:01.133Z,97647.11
2019-01-05T16:40:34.590Z,97652.24
2019-01-05T16:43:05.628Z,97636.11
2019-01-05T16:45:50.065Z,97653.14
2019-01-05T16:48:34.822Z,97645.72
2019-01-05T16:51:20.466Z,97652.27
2019-01-05T16:53:51.397Z,97653.55
2019-01-05T16:56:37.642Z,97648.42
2019-01-05T16:59:22.115Z,97661.66
2019-01-05T17:02:03.550Z,97652.65
2019-01-05T17:04:48.947Z,97660.39
2019-01-05T17:07:33.198Z,97659.51
2019-01-05T17:10:19.401Z,97665.53
2019-01-05T17:12:49.905Z,97659.41
2019-01-05T17:15:26.705Z,97665.40
2019-01-05T17:17:57.171Z,97660.69
2019-01-05T17:20:37.162Z,97659.45
2019-01-05T17:23:10.711Z,97652.58
2019-01-05T17:25:51.038Z,97654.26
2019-01-05T17:28:18.823Z,97652.55
2019-01-05T17:30:46.529Z,97651.58
2019-01-05T17:33:17.069Z,97643.52
2019-01-05T17:35:51.196Z,97649.86
2019-01-05T17:38:35.678Z,97648.19
2019-01-05T17:41:20.069Z,97633.22
2019-01-05T17:43:56.772Z,97628.91
2019-01-05T17:46:24.514Z,97630.17
2019-01-05T17:49:09.190Z,97641.38
2019-01-05T17:51:54.160Z,97631.05
2019-01-05T17:54:34.039Z,97631.09
2019-01-05T17:57:17.459Z,97639.66
2019-01-05T17:59:50.843Z,97637.91
2019-01-05T18:02:18.668Z,97635.36
2019-01-05T18:04:49.165Z,97642.97
2019-01-05T18:07:33.522Z,97645.56
2019-01-05T18:10:10.421Z,97646.02
2019-01-05T18:12:50.327Z,97649.39
2019-01-05T18:15:21.509Z,97657.52
2019-01-05T18:18:05.979Z,97653.64
2019-01-05T18:20:45.666Z,97658.38
2019-01-05T18:23:22.290Z,97653.16
2019-01-05T18:26:07.968Z,97656.53
2019-01-05T18:28:55.982Z,97657.39
2019-01-05T18:31:41.879Z,97652.24
2019-01-05T18:34:21.943Z,97650.50
2019-01-05T18:36:52.457Z,97642.75
2019-01-05T18:39:36.924Z,97653.03
2019-01-05T18:42:04.653Z,97639.77
2019-01-05T18:44:32.401Z,97642.34
2019-01-05T18:47:15.583Z,97639.61
2019-01-05T18:49:47.893Z,97646.03
2019-01-05T18:52:28.135Z,97643.05
2019-01-05T18:55:08.156Z,97645.07
2019-01-05T18:57:52.662Z,97645.86
2019-01-05T19:00:37.043Z,97645.53
2019-01-05T19:03:21.433Z,97646.44
2019-01-05T19:08:46.913Z,97644.31
2019-01-05T19:11:23.500Z,97642.66
2019-01-05T19:13:51.534Z,97647.02
2019-01-05T19:16:25.148Z,97650.37
2019-01-05T19:19:16.890Z,97648.11
2019-01-05T19:22:03.533Z,97644.22
2019-01-05T19:24:47.810Z,97651.47
2019-01-05T19:27:15.598Z,97653.56
2019-01-05T19:29:45.834Z,97656.22
2019-01-05T19:32:22.468Z,97657.52
2019-01-05T19:35:07.910Z,97662.29
2019-01-05T19:37:54.034Z,97660.19
2019-01-05T19:40:38.925Z,97662.29
2019-01-05T19:43:06.665Z,97667.91
2019-01-05T19:45:36.921Z,97657.62
2019-01-05T19:48:21.737Z,97665.67
2019-01-05T19:50:49.768Z,97662.69
2019-01-05T19:53:20.079Z,97666.22
2019-01-05T19:56:06.164Z,97664.94
2019-01-05T19:58:39.767Z,97669.20
2019-01-05T20:01:07.825Z,97659.80
2019-01-05T20:03:35.550Z,97661.56
2019-01-05T20:06:03.569Z,97658.59
2019-01-05T20:08:31.336Z,97662.47
2019-01-05T20:11:16.025Z,97658.98
2019-01-05T20:13:46.871Z,97659.47
2019-01-05T20:16:17.378Z,97657.25
2019-01-05T20:18:48.670Z,97654.73
2019-01-05T20:21:33.715Z,97658.53
2019-01-05T20:24:17.885Z,97650.41
2019-01-05T20:29:51.308Z,97659.53
2019-01-05T20:32:34.391Z,97660.41
2019-01-05T20:35:18.886Z,97656.53
2019-01-05T20:38:03.498Z,97650.88
2019-01-05T20:40:33.773Z,97648.33
2019-01-05T20:43:01.513Z,97651.29
2019-01-05T20:45:38.636Z,97649.09
2019-01-05T20:48:21.807Z,97656.51
2019-01-05T20:51:07.555Z,97650.95
2019-01-05T20:56:39.422Z,97652.28
2019-01-05T20:59:23.958Z,97657.50
2019-01-05T21:01:54.753Z,97661.77
2019-01-05T21:04:28.950Z,97645.75
2019-01-05T21:07:08.459Z,97644.45
2019-01-05T21:09:36.569Z,97645.80
2019-01-05T21:12:04.325Z,97647.91
2019-01-05T21:14:49.342Z,97650.09
2019-01-05T21:17:29.275Z,97644.06
2019-01-05T21:20:03.387Z,97652.58
2019-01-05T21:22:55.673Z,97655.22
2019-01-05T21:25:23.912Z,97660.81
2019-01-05T21:27:51.633Z,97679.31
2019-01-05T21:30:41.067Z,97653.05
2019-01-05T21:33:12.101Z,97664.64
2019-01-05T21:35:40.077Z,97644.83
2019-01-05T21:38:14.112Z,97649.21
2019-01-05T21:40:44.850Z,97644.45
2019-01-05T21:43:12.871Z,97655.63
2019-01-05T21:45:40.641Z,97659.03
2019-01-05T21:48:14.421Z,97656.42
2019-01-05T21:51:00.273Z,97655.15
2019-01-05T21:53:35.807Z,97664.56
2019-01-05T21:56:06.081Z,97664.67
2019-01-05T21:58:33.825Z,97677.55
2019-01-05T22:01:07.715Z,97678.39
2019-01-05T22:03:44.483Z,97682.25
2019-01-05T22:06:28.921Z,97675.34
2019-01-05T22:09:13.785Z,97670.27
2019-01-05T22:11:44.316Z,97676.63
2019-01-05T22:14:15.101Z,97676.20
2019-01-05T22:17:00.269Z,97675.34
2019-01-05T22:19:27.993Z,97586.61
2019-01-05T22:22:10.695Z,97677.84
2019-01-05T22:24:57.311Z,97677.44
2019-01-05T22:27:31.306Z,97680.02
2019-01-05T22:30:08.449Z,97685.53
2019-01-05T22:32:39.161Z,97686.52
2019-01-05T22:35:24.708Z,97680.48
2019-01-05T22:38:01.643Z,97687.34
2019-01-05T22:40:35.480Z,97689.52
2019-01-05T22:43:15.008Z,97691.67
2019-01-05T22:46:00.683Z,97687.84
2019-01-05T22:48:34.838Z,97693.00
2019-01-05T22:51:06.785Z,97697.33
2019-01-05T22:53:34.777Z,97690.90
2019-01-05T22:56:11.997Z,97687.44
2019-01-05T22:58:46.277Z,97691.67
2019-01-05T23:01:32.597Z,97686.93
2019-01-05T23:04:06.162Z,97687.34
2019-01-05T23:06:42.795Z,97688.59
2019-01-05T23:09:23.154Z,97690.30
2019-01-05T23:11:58.111Z,97694.72
2019-01-05T23:14:37.930Z,97695.57
2019-01-05T23:17:08.421Z,97693.86
2019-01-05T23:19:39.195Z,97693.06
2019-01-05T23:22:24.099Z,97696.02
2019-01-05T23:25:08.917Z,97697.70
2019-01-05T23:27:36.669Z,97690.39
2019-01-05T23:30:14.526Z,97688.32
2019-01-05T23:32:42.585Z,97687.12
2019-01-05T23:35:18.429Z,97695.27
2019-01-05T23:37:52.237Z,97695.27
2019-01-05T23:43:18.697Z,97684.66
2019-01-05T23:45:46.762Z,97694.63
2019-01-05T23:48:26.613Z,97677.89
2019-01-05T23:50:54.345Z,97687.28
2019-01-05T23:53:22.391Z,97665.02
2019-01-05T23:56:10.271Z,97649.22
2019-01-05T23:58:44.063Z,97645.05
